Time;durP1;ratioP1;P1;durP2;ratioP2;P2;SDS_P1;SDS_P2;PMS_P1;PMS_P2;Temp;Humidity;BMP_temperature;BMP_pressure;BME280_temperature;BME280_humidity;BME280_pressure;Samples;Min_cycle;Max_cycle;Signal;HPM_P1;HPM_P2
2023/02/03 00:02:20;;;;;;;216.63;199.85;;;;;;;3.56;89.43;101835.97;4966256;28;20031;-77
2023/02/03 00:04:45;;;;;;;197.82;180.88;;;;;;;3.62;89.14;101838.84;4969537;28;20038;-77
2023/02/03 00:07:12;;;;;;;219.35;202.80;;;;;;;3.64;89.43;101828.88;4960020;28;20054;-78
2023/02/03 00:09:38;;;;;;;217.68;200.93;;;;;;;3.75;89.37;101834.44;4962725;28;20046;-78
2023/02/03 00:12:05;;;;;;;199.80;182.50;;;;;;;3.76;89.39;101829.94;4964907;28;20041;-78
2023/02/03 00:14:32;;;;;;;203.45;185.98;;;;;;;3.78;89.60;101825.25;4968782;28;20050;-78
2023/02/03 00:16:58;;;;;;;203.77;186.25;;;;;;;3.87;89.79;101828.56;4962652;28;20073;-78
2023/02/03 00:19:23;;;;;;;222.52;205.38;;;;;;;3.88;89.93;101823.06;4959264;28;20066;-78
2023/02/03 00:21:49;;;;;;;223.98;206.77;;;;;;;3.95;90.08;101807.19;4965282;28;20394;-77
2023/02/03 00:24:17;;;;;;;225.75;208.23;;;;;;;4.08;89.85;101817.84;4949079;28;20088;-79
2023/02/03 00:26:43;;;;;;;225.68;208.00;;;;;;;4.08;90.13;101808.03;4980321;28;20513;-78
2023/02/03 00:29:09;;;;;;;229.57;211.45;;;;;;;4.20;90.41;101810.09;4948920;28;20035;-77
2023/02/03 00:31:34;;;;;;;210.57;192.23;;;;;;;4.46;90.48;101804.81;4929897;28;20035;-78
2023/02/03 00:34:00;;;;;;;216.57;197.18;;;;;;;4.74;90.64;101806.47;4953071;28;20043;-79
2023/02/03 00:36:26;;;;;;;233.98;215.02;;;;;;;4.97;90.86;101796.25;4952531;28;20572;-77
2023/02/03 00:38:53;;;;;;;235.75;216.82;;;;;;;5.11;90.64;101791.72;4960993;28;20032;-78
2023/02/03 00:41:20;;;;;;;236.23;217.23;;;;;;;5.18;90.33;101790.69;4956123;28;20117;-78
2023/02/03 00:43:45;;;;;;;217.57;197.88;;;;;;;5.22;90.75;101787.63;4949321;28;20389;-79
2023/02/03 00:46:11;;;;;;;233.27;214.43;;;;;;;5.33;90.41;101793.09;4949337;28;20042;-79
2023/02/03 00:48:37;;;;;;;212.45;193.65;;;;;;;5.44;90.15;101775.69;4956928;28;20050;-78
2023/02/03 00:51:03;;;;;;;212.55;193.60;;;;;;;5.52;90.61;101778.13;4970621;28;20153;-77
2023/02/03 00:53:29;;;;;;;212.55;193.65;;;;;;;5.57;90.30;101767.69;4964924;28;20047;-79
2023/02/03 00:55:55;;;;;;;211.20;192.50;;;;;;;5.62;89.97;101782.97;4967125;28;20517;-80
2023/02/03 00:58:21;;;;;;;210.75;192.32;;;;;;;5.64;90.17;101781.75;4950218;28;20035;-78
2023/02/03 01:00:47;;;;;;;228.23;210.10;;;;;;;5.68;90.25;101760.88;4970962;28;20098;-78
2023/02/03 01:03:12;;;;;;;230.38;212.02;;;;;;;5.73;90.21;101767.19;4950851;28;20182;-80
2023/02/03 01:05:38;;;;;;;225.88;208.13;;;;;;;5.85;89.94;101761.22;4957736;28;20034;-79
2023/02/03 01:08:04;;;;;;;227.90;209.73;;;;;;;5.77;89.79;101745.50;4948992;28;20031;-78
2023/02/03 01:10:30;;;;;;;209.07;190.35;;;;;;;5.81;90.01;101742.19;4951357;28;20110;-77
2023/02/03 01:12:56;;;;;;;225.48;207.35;;;;;;;5.86;90.06;101741.56;4934292;28;20094;-77
2023/02/03 01:15:21;;;;;;;226.85;208.70;;;;;;;5.97;89.63;101732.94;4969442;28;20130;-77
2023/02/03 01:17:47;;;;;;;224.55;206.60;;;;;;;5.92;89.48;101719.47;4954747;28;20027;-76
2023/02/03 01:20:13;;;;;;;224.77;207.00;;;;;;;5.98;89.41;101727.41;4949500;28;20069;-78
2023/02/03 01:22:39;;;;;;;224.60;206.45;;;;;;;6.04;89.24;101709.78;4952544;28;20049;-77
2023/02/03 01:25:04;;;;;;;206.70;188.50;;;;;;;6.11;89.08;101718.53;4971512;28;20584;-75
2023/02/03 01:27:32;;;;;;;223.90;206.02;;;;;;;6.07;88.99;101705.88;4981398;28;20094;-78
2023/02/03 01:29:58;;;;;;;221.65;203.80;;;;;;;6.10;89.04;101692.97;4982934;28;20140;-77
2023/02/03 01:32:25;;;;;;;207.77;188.77;;;;;;;6.11;88.83;101691.94;4940009;28;20042;-77
2023/02/03 01:34:50;;;;;;;221.82;204.07;;;;;;;6.12;88.49;101693.56;4937923;28;20026;-79
2023/02/03 01:37:16;;;;;;;207.13;188.60;;;;;;;6.12;88.97;101688.25;4949288;28;20056;-78
2023/02/03 01:39:43;;;;;;;209.30;190.00;;;;;;;6.18;88.82;101682.06;4966395;28;20034;-78
2023/02/03 01:42:13;;;;;;;211.95;192.35;;;;;;;6.14;89.00;101680.03;4964163;28;20066;-77
2023/02/03 01:44:50;;;;;;;210.10;191.27;;;;;;;6.23;88.23;101646.81;4967912;28;20046;-76
2023/02/03 01:47:33;;;;;;;222.95;204.98;;;;;;;6.14;88.81;101650.78;4967109;28;20066;-77
2023/02/03 01:50:05;;;;;;;221.88;204.18;;;;;;;6.15;88.63;101649.75;4951756;28;20049;-77
2023/02/03 01:52:31;;;;;;;;;;;;;;;6.17;88.81;101642.38;4963243;28;20112;-76
2023/02/03 01:55:01;;;;;;;228.90;210.48;;;;;;;6.12;88.45;101635.03;4962226;28;20004;-76
2023/02/03 01:57:35;;;;;;;222.02;204.10;;;;;;;6.20;88.15;101628.63;4954584;28;20037;-76
2023/02/03 02:00:04;;;;;;;225.60;207.40;;;;;;;6.18;88.18;101626.19;4942332;28;20034;-77
2023/02/03 02:02:40;;;;;;;207.63;188.95;;;;;;;6.23;88.14;101644.13;4962379;28;20065;-76
2023/02/03 02:05:28;;;;;;;221.45;203.73;;;;;;;6.17;88.00;101648.50;4969505;28;20039;-77
2023/02/03 02:07:56;;;;;;;223.25;205.55;;;;;;;6.22;88.33;101640.66;4983719;28;20031;-80
2023/02/03 02:10:22;;;;;;;221.43;203.68;;;;;;;6.26;87.90;101641.88;4936115;28;20051;-78
2023/02/03 02:12:48;;;;;;;219.63;201.98;;;;;;;6.19;88.21;101635.00;4953812;28;20673;-78
2023/02/03 02:15:14;;;;;;;207.63;189.43;;;;;;;6.21;87.84;101632.91;4954732;28;20142;-78
2023/02/03 02:18:31;;;;;;;203.93;185.70;;;;;;;6.28;87.60;101629.16;4946053;28;20129;-77
2023/02/03 02:21:20;;;;;;;206.20;187.45;;;;;;;6.20;88.07;101637.41;4945962;28;20109;-78
2023/02/03 02:23:55;;;;;;;224.80;206.68;;;;;;;6.25;87.84;101644.75;4965698;28;20050;-76
2023/02/03 02:26:53;;;;;;;224.60;206.55;;;;;;;6.27;87.99;101634.69;4967692;28;20035;-76
2023/02/03 02:29:40;;;;;;;208.23;189.50;;;;;;;6.20;88.30;101620.66;4968544;28;20038;-78
2023/02/03 02:32:27;;;;;;;223.38;205.60;;;;;;;6.17;88.31;101605.16;4937802;28;20587;-79
2023/02/03 02:35:08;;;;;;;222.23;204.23;;;;;;;6.21;87.85;101603.66;4970292;28;20035;-79
2023/02/03 02:37:56;;;;;;;204.18;186.48;;;;;;;6.15;88.13;101594.69;4984902;28;20038;-78
2023/02/03 02:40:28;;;;;;;206.05;188.05;;;;;;;6.16;88.10;101620.25;4949957;28;20042;-78
2023/02/03 02:43:01;;;;;;;222.43;204.90;;;;;;;6.14;88.59;101603.72;4960390;28;20039;-78
2023/02/03 02:45:36;;;;;;;205.52;187.27;;;;;;;6.26;87.56;101606.47;4937788;28;20054;-78
2023/02/03 02:48:09;;;;;;;221.00;203.65;;;;;;;6.19;88.10;101598.56;4967388;28;20493;-78
2023/02/03 02:50:40;;;;;;;203.50;185.43;;;;;;;6.27;87.51;101594.81;4970057;28;20042;-77
2023/02/03 02:53:08;;;;;;;204.27;186.40;;;;;;;6.19;87.76;101597.75;4984349;28;20030;-78
2023/02/03 02:55:39;;;;;;;219.70;202.02;;;;;;;6.23;87.87;101591.78;4950574;29;20035;-78
2023/02/03 02:58:10;;;;;;;220.40;203.38;;;;;;;6.28;87.49;101605.22;4968275;28;20035;-79
2023/02/03 03:00:39;;;;;;;202.00;184.30;;;;;;;6.30;86.78;101607.69;4950764;28;20497;-79
2023/02/03 03:03:13;;;;;;;201.93;183.82;;;;;;;6.34;87.38;101589.41;4967963;28;20041;-78
2023/02/03 03:05:43;;;;;;;200.85;182.95;;;;;;;6.30;86.92;101589.06;4965239;28;20038;-79
2023/02/03 03:08:12;;;;;;;202.38;184.32;;;;;;;6.31;86.61;101581.88;4956308;28;20050;-77
2023/02/03 03:10:40;;;;;;;202.48;184.40;;;;;;;6.32;86.74;101564.88;4970240;28;20045;-79
2023/02/03 03:13:11;;;;;;;200.30;182.70;;;;;;;6.37;86.97;101588.97;4970736;28;20050;-78
2023/02/03 03:15:39;;;;;;;217.35;200.10;;;;;;;6.29;86.52;101571.44;4947901;29;20077;-78
2023/02/03 03:18:17;;;;;;;201.02;182.55;;;;;;;6.27;86.94;101569.00;4953661;28;20520;-78
2023/02/03 03:20:46;;;;;;;199.77;181.65;;;;;;;6.22;86.76;101550.22;4972097;28;20035;-78
2023/02/03 03:23:23;;;;;;;202.20;183.68;;;;;;;6.27;86.85;101552.25;4937183;28;20141;-77
2023/02/03 03:25:59;;;;;;;216.25;199.50;;;;;;;6.27;86.22;101544.25;4969827;28;20090;-79
2023/02/03 03:28:41;;;;;;;202.35;184.50;;;;;;;6.27;86.89;101552.25;4985086;28;20575;-78
2023/02/03 03:31:06;;;;;;;;;;;;;;;6.32;85.73;101548.94;4954365;28;20043;-79
2023/02/03 03:33:32;;;;;;;205.88;187.85;;;;;;;6.42;85.54;101534.06;4951906;28;20188;-78
2023/02/03 03:36:13;;;;;;;202.63;184.77;;;;;;;6.37;85.80;101531.28;4969980;28;20048;-78
2023/02/03 03:38:44;;;;;;;202.70;185.05;;;;;;;6.32;85.85;101524.97;4948173;28;20031;-77
2023/02/03 03:41:23;;;;;;;134.82;119.40;;;;;;;6.41;84.76;101529.78;4968535;28;20039;-78
2023/02/03 03:43:54;;;;;;;200.15;182.63;;;;;;;6.40;85.13;101509.53;4963863;28;20035;-76
2023/02/03 03:46:26;;;;;;;201.38;183.70;;;;;;;6.38;85.19;101522.25;4951998;28;20047;-78
2023/02/03 03:48:57;;;;;;;218.10;200.93;;;;;;;6.34;85.88;101518.41;4964836;28;20039;-79
2023/02/03 03:51:29;;;;;;;216.00;199.48;;;;;;;6.34;85.53;101523.72;4952787;28;20088;-79
2023/02/03 03:53:58;;;;;;;199.05;181.48;;;;;;;6.34;85.61;101518.41;4965382;28;20045;-79
2023/02/03 03:56:33;;;;;;;216.35;199.13;;;;;;;6.36;85.54;101518.97;4967880;28;20051;-79
2023/02/03 03:59:01;;;;;;;197.88;180.50;;;;;;;6.32;86.11;101522.31;4967839;28;20027;-79
2023/02/03 04:01:28;;;;;;;200.73;183.10;;;;;;;6.31;86.21;101523.34;4948627;28;20127;-79
2023/02/03 04:04:01;;;;;;;198.38;180.77;;;;;;;6.36;86.08;101526.97;4963416;28;20134;-79
2023/02/03 04:06:27;;;;;;;201.25;183.40;;;;;;;6.31;86.66;101518.84;4952637;28;20090;-79
2023/02/03 04:08:53;;;;;;;198.40;180.93;;;;;;;6.33;86.46;101522.09;4967115;28;20035;-78
2023/02/03 04:14:03;;;;;;;219.05;201.63;;;;;;;6.32;86.46;101490.41;4963933;28;20508;-78
2023/02/03 04:16:29;;;;;;;216.82;199.73;;;;;;;6.33;85.93;101492.84;4964822;28;20035;-78
2023/02/03 04:18:54;;;;;;;198.15;180.32;;;;;;;6.34;86.73;101498.97;4951567;28;20058;-78
2023/02/03 04:21:20;;;;;;;213.73;196.93;;;;;;;6.31;86.48;101478.13;4971539;28;20511;-79
2023/02/03 04:23:45;;;;;;;214.02;197.23;;;;;;;6.31;86.27;101478.13;4970168;28;20022;-77
2023/02/03 04:26:11;;;;;;;215.27;198.00;;;;;;;6.31;86.60;101475.47;4971113;28;20035;-78
2023/02/03 04:28:37;;;;;;;214.50;197.68;;;;;;;6.44;86.54;101480.63;4956521;28;20038;-81
2023/02/03 04:31:03;;;;;;;214.18;197.23;;;;;;;6.27;87.23;101478.56;4964266;28;20041;-80
2023/02/03 04:33:28;;;;;;;213.82;197.13;;;;;;;6.31;87.16;101465.66;4970585;28;20354;-79
2023/02/03 04:35:54;;;;;;;214.77;197.95;;;;;;;6.28;87.40;101464.22;4946983;28;20421;-79
2023/02/03 04:38:20;;;;;;;198.70;181.40;;;;;;;6.23;87.51;101449.97;4955296;28;20034;-78
2023/02/03 04:40:46;;;;;;;197.73;180.32;;;;;;;6.23;87.84;101461.44;4941149;28;20069;-78
2023/02/03 04:43:13;;;;;;;214.93;198.25;;;;;;;6.26;87.65;101458.31;4960879;28;20038;-81
2023/02/03 04:45:38;;;;;;;197.68;180.40;;;;;;;6.33;87.43;101476.06;4968704;28;20122;-79
2023/02/03 04:48:04;;;;;;;196.88;179.88;;;;;;;6.24;87.94;101465.72;4970717;28;20542;-80
2023/02/03 04:50:30;;;;;;;214.50;197.93;;;;;;;6.27;88.11;101477.75;4971400;28;20089;-80
2023/02/03 04:52:59;;;;;;;197.52;180.32;;;;;;;6.21;88.07;101474.13;4955865;28;20485;-79
2023/02/03 04:55:25;;;;;;;200.13;182.50;;;;;;;6.23;88.11;101477.41;4973256;28;20031;-80
2023/02/03 04:57:59;;;;;;;197.00;179.70;;;;;;;6.31;87.19;101473.63;4946751;28;20026;-82
2023/02/03 05:00:26;;;;;;;216.95;199.90;;;;;;;6.24;87.63;101476.38;4973032;28;20059;-80
2023/02/03 05:02:52;;;;;;;197.98;180.35;;;;;;;6.35;87.32;101456.16;4959749;28;20114;-80
2023/02/03 05:05:18;;;;;;;213.77;197.30;;;;;;;6.33;86.94;101450.25;4952984;28;20077;-80
2023/02/03 05:07:43;;;;;;;199.43;181.82;;;;;;;6.29;87.25;101449.88;4958567;28;20498;-82
2023/02/03 05:10:09;;;;;;;197.55;180.23;;;;;;;6.32;87.22;101431.88;4967572;28;20043;-80
2023/02/03 05:12:35;;;;;;;198.10;180.63;;;;;;;6.36;87.47;101425.03;4961206;28;20074;-79
2023/02/03 05:15:01;;;;;;;198.60;181.07;;;;;;;6.31;87.24;101422.28;4960863;28;20038;-79
2023/02/03 05:17:26;;;;;;;216.90;199.60;;;;;;;6.26;87.85;101415.75;4933701;28;20039;-80
2023/02/03 05:19:52;;;;;;;199.80;182.07;;;;;;;6.28;87.76;101400.38;4965593;28;20436;-80
2023/02/03 05:22:17;;;;;;;216.73;199.35;;;;;;;6.25;87.83;101392.88;4957643;28;20047;-78
2023/02/03 05:24:43;;;;;;;202.00;183.95;;;;;;;6.23;87.83;101400.25;4971534;28;20078;-80
2023/02/03 05:27:09;;;;;;;215.50;198.32;;;;;;;6.24;88.14;101393.91;4968191;28;20051;-79
2023/02/03 05:29:34;;;;;;;199.45;180.88;;;;;;;6.25;88.07;101392.06;4956444;28;20550;-79
2023/02/03 05:32:00;;;;;;;200.07;182.07;;;;;;;6.20;87.99;101392.72;4957009;28;20050;-80
2023/02/03 05:34:25;;;;;;;201.73;183.40;;;;;;;6.22;87.88;101390.63;4958461;28;20054;-80
2023/02/03 05:36:51;;;;;;;200.95;183.20;;;;;;;6.28;87.80;101388.94;4964404;28;20056;-79
2023/02/03 05:39:17;;;;;;;218.15;200.65;;;;;;;6.23;87.87;101391.44;4957728;28;20042;-79
2023/02/03 05:41:51;;;;;;;217.20;199.88;;;;;;;6.19;88.29;101384.97;4966876;28;20102;-81
2023/02/03 05:44:21;;;;;;;219.05;201.85;;;;;;;6.27;87.98;101393.44;4959504;28;20061;-79
2023/02/03 05:46:47;;;;;;;200.05;182.02;;;;;;;6.27;88.01;101388.13;4963313;28;20507;-78
2023/02/03 05:49:13;;;;;;;199.43;181.57;;;;;;;6.24;88.35;101393.09;4957250;28;20038;-80
2023/02/03 05:51:39;;;;;;;199.18;181.25;;;;;;;6.22;88.19;101380.00;4958808;28;20039;-80
2023/02/03 05:54:06;;;;;;;217.40;200.07;;;;;;;6.27;88.08;101382.81;4973974;28;20170;-79
2023/02/03 05:56:31;;;;;;;200.38;182.35;;;;;;;6.26;87.64;101370.53;4959630;28;20050;-79
2023/02/03 05:58:57;;;;;;;215.15;198.50;;;;;;;6.29;87.51;101364.75;4959039;28;20042;-80
2023/02/03 06:01:22;;;;;;;214.77;198.00;;;;;;;6.24;88.03;101377.94;4977597;28;20091;-81
2023/02/03 06:03:48;;;;;;;216.27;199.35;;;;;;;6.26;87.80;101386.50;4962483;28;20054;-81
2023/02/03 06:06:15;;;;;;;216.77;199.90;;;;;;;6.27;88.22;101376.69;4960529;28;20452;-79
2023/02/03 06:08:41;;;;;;;218.32;201.13;;;;;;;6.31;87.87;101375.19;4974031;28;20023;-80
2023/02/03 06:11:07;;;;;;;216.07;198.98;;;;;;;6.27;87.96;101372.16;4973881;28;20042;-81
2023/02/03 06:13:33;;;;;;;199.40;182.00;;;;;;;6.25;88.36;101368.13;4978773;28;20370;-80
2023/02/03 06:15:58;;;;;;;215.68;198.45;;;;;;;6.23;88.42;101349.72;4952281;28;20047;-80
2023/02/03 06:18:24;;;;;;;214.18;197.43;;;;;;;6.24;88.25;101345.22;4963311;28;20039;-78
2023/02/03 06:20:50;;;;;;;215.07;198.20;;;;;;;6.21;88.67;101343.00;4953735;28;20090;-79
2023/02/03 06:23:17;;;;;;;216.43;199.25;;;;;;;6.19;88.81;101343.22;4961572;28;20043;-81
2023/02/03 06:25:44;;;;;;;199.70;181.82;;;;;;;6.18;88.75;101341.59;4956589;28;20041;-80
2023/02/03 06:28:10;;;;;;;215.20;197.85;;;;;;;6.22;88.96;101329.47;4957091;28;20031;-81
2023/02/03 06:30:36;;;;;;;217.23;199.95;;;;;;;6.23;88.73;101331.13;4944140;28;20089;-83
2023/02/03 06:33:01;;;;;;;197.18;179.48;;;;;;;6.22;88.99;101337.44;4958308;28;20043;-80
2023/02/03 06:35:27;;;;;;;197.25;179.75;;;;;;;6.23;88.85;101323.13;4956063;28;20468;-80
2023/02/03 06:37:53;;;;;;;197.75;180.00;;;;;;;6.29;88.83;101324.88;4961583;28;20034;-81
2023/02/03 06:40:19;;;;;;;198.48;180.88;;;;;;;6.31;88.67;101324.66;4964346;28;20099;-79
2023/02/03 06:42:46;;;;;;;218.43;201.18;;;;;;;6.35;88.82;101335.63;4952873;28;20393;-80
2023/02/03 06:45:12;;;;;;;216.98;199.88;;;;;;;6.31;89.36;101321.19;4946092;28;20062;-82
2023/02/03 06:47:39;;;;;;;215.05;198.35;;;;;;;6.33;89.17;101332.41;4971975;28;20039;-80
2023/02/03 06:50:05;;;;;;;197.80;179.98;;;;;;;6.32;89.56;101315.63;4956746;28;20035;-80
2023/02/03 06:52:31;;;;;;;197.88;180.27;;;;;;;6.36;88.93;101310.66;4958750;28;20045;-80
2023/02/03 06:54:56;;;;;;;200.32;182.40;;;;;;;6.46;88.78;101316.25;4946572;28;20148;-81
2023/02/03 06:57:22;;;;;;;215.18;197.88;;;;;;;6.39;89.33;101312.88;4965492;28;20042;-80
2023/02/03 06:59:47;;;;;;;197.23;179.38;;;;;;;6.47;88.89;101318.66;4972207;28;20039;-81
2023/02/03 07:02:13;;;;;;;218.75;201.43;;;;;;;6.49;88.84;101315.78;4958786;28;20038;-80
2023/02/03 07:04:38;;;;;;;201.18;183.20;;;;;;;6.51;88.31;101317.19;4975807;28;20039;-80
2023/02/03 07:07:04;;;;;;;200.57;182.23;;;;;;;6.55;88.86;101307.69;4970300;28;20050;-81
2023/02/03 07:09:30;;;;;;;202.82;183.80;;;;;;;6.57;88.97;101318.13;4979118;28;20034;-80
2023/02/03 07:11:56;;;;;;;215.23;197.98;;;;;;;6.58;88.99;101319.75;4943973;28;20507;-80
2023/02/03 07:14:22;;;;;;;199.25;181.13;;;;;;;6.49;89.35;101313.13;4960988;28;20043;-80
2023/02/03 07:16:47;;;;;;;216.50;198.25;;;;;;;6.52;89.33;101310.00;4951979;28;20520;-78
2023/02/03 07:19:13;;;;;;;217.70;199.45;;;;;;;6.54;89.22;101303.41;4937867;28;20031;-81
2023/02/03 07:21:39;;;;;;;199.85;181.32;;;;;;;6.59;89.15;101299.28;4973736;28;20101;-80
2023/02/03 07:24:04;;;;;;;198.70;180.52;;;;;;;6.57;89.28;101310.16;4952654;28;20035;-79
2023/02/03 07:26:30;;;;;;;214.65;197.43;;;;;;;6.64;88.78;101292.22;4971790;28;20050;-80
2023/02/03 07:28:58;;;;;;;196.63;179.40;;;;;;;6.70;88.47;101301.91;4944884;28;20093;-80
2023/02/03 07:31:24;;;;;;;197.57;179.68;;;;;;;6.64;89.00;101300.22;4960136;28;20493;-81
2023/02/03 07:33:49;;;;;;;199.60;181.52;;;;;;;6.64;89.20;101296.72;4978349;28;20038;-81
2023/02/03 07:36:15;;;;;;;212.73;195.27;;;;;;;6.66;89.21;101298.13;4956377;28;21315;-81
2023/02/03 07:38:41;;;;;;;196.98;179.40;;;;;;;6.67;88.97;101291.75;4954895;28;20031;-80
2023/02/03 07:41:06;;;;;;;198.50;180.50;;;;;;;6.62;89.62;101282.81;4954590;28;20051;-82
2023/02/03 07:43:32;;;;;;;198.60;179.93;;;;;;;6.63;89.53;101284.44;4958352;28;20085;-79
2023/02/03 07:45:58;;;;;;;197.07;179.00;;;;;;;6.73;89.16;101277.53;4969335;28;20033;-80
2023/02/03 07:48:24;;;;;;;211.48;194.77;;;;;;;6.71;89.16;101286.78;4958930;28;20034;-80
2023/02/03 07:50:51;;;;;;;211.20;193.93;;;;;;;6.77;89.04;101292.00;4947125;28;20496;-80
2023/02/03 07:53:17;;;;;;;197.38;179.45;;;;;;;6.71;89.29;101282.28;4971254;28;20112;-79
2023/02/03 07:55:43;;;;;;;197.30;179.30;;;;;;;6.73;89.13;101280.19;4966683;28;20106;-81
2023/02/03 07:58:09;;;;;;;196.15;178.52;;;;;;;6.81;89.19;101287.81;4956714;28;20046;-81
2023/02/03 08:00:35;;;;;;;197.68;179.48;;;;;;;6.95;87.94;101287.59;4964721;28;20031;-80
2023/02/03 08:03:01;;;;;;;207.85;191.13;;;;;;;6.86;88.65;101279.16;4974378;28;20511;-80
2023/02/03 08:05:29;;;;;;;204.65;188.32;;;;;;;6.92;88.72;101272.09;4984750;28;20519;-80
2023/02/03 08:07:55;;;;;;;191.77;174.73;;;;;;;6.91;88.88;101302.41;4971658;28;20031;-81
2023/02/03 08:10:21;;;;;;;196.10;178.13;;;;;;;6.93;88.64;101303.00;4971212;28;20122;-80
2023/02/03 08:12:47;;;;;;;201.13;182.38;;;;;;;6.95;88.86;101298.25;4954781;28;20038;-80
2023/02/03 08:15:13;;;;;;;219.32;201.05;;;;;;;7.00;88.48;101307.16;4968661;28;20019;-78
2023/02/03 08:17:40;;;;;;;219.90;201.63;;;;;;;6.99;88.41;101336.69;4945087;28;20041;-77
2023/02/03 08:20:07;;;;;;;212.93;194.75;;;;;;;6.94;88.85;101349.88;4950613;28;20050;-77
2023/02/03 08:22:33;;;;;;;204.73;184.85;;;;;;;7.04;87.70;101382.06;4961686;28;20072;-77
2023/02/03 08:24:58;;;;;;;213.88;196.07;;;;;;;6.68;86.21;101378.53;4962094;28;20050;-78
2023/02/03 08:27:24;;;;;;;203.23;184.63;;;;;;;6.38;84.41;101351.16;4947737;28;20038;-76
2023/02/03 08:29:50;;;;;;;212.68;195.93;;;;;;;6.06;84.46;101348.72;4963252;28;20051;-79
2023/02/03 08:32:20;;;;;;;199.73;181.57;;;;;;;5.99;83.49;101358.63;4949616;28;20038;-79
2023/02/03 08:34:47;;;;;;;197.85;179.50;;;;;;;5.94;85.24;101358.47;4947339;28;20030;-79
2023/02/03 08:37:14;;;;;;;216.20;198.48;;;;;;;6.00;85.09;101361.06;4953313;28;20039;-80
2023/02/03 08:39:40;;;;;;;216.95;198.82;;;;;;;6.14;85.98;101379.50;4977060;28;20049;-79
2023/02/03 08:42:06;;;;;;;197.80;179.43;;;;;;;6.19;85.88;101364.50;4970910;28;20038;-80
2023/02/03 08:44:33;;;;;;;216.25;197.73;;;;;;;6.09;86.54;101377.50;4994247;28;20026;-79
2023/02/03 08:46:59;;;;;;;199.23;180.38;;;;;;;6.15;86.65;101373.16;4962525;28;20035;-79
2023/02/03 08:49:27;;;;;;;198.65;179.40;;;;;;;6.42;83.11;101373.59;4957292;28;20019;-79
2023/02/03 08:51:54;;;;;;;214.82;196.70;;;;;;;6.34;82.29;101397.88;4956046;28;20089;-79
2023/02/03 08:54:20;;;;;;;215.63;196.65;;;;;;;6.26;82.98;101386.50;4954789;28;20374;-78
2023/02/03 08:56:46;;;;;;;218.65;199.50;;;;;;;6.36;80.83;101393.94;4970349;28;20034;-78
2023/02/03 08:59:14;;;;;;;216.48;198.20;;;;;;;6.25;80.81;101374.25;4963010;28;20038;-79
2023/02/03 09:01:40;;;;;;;203.35;183.30;;;;;;;6.36;80.42;101411.75;4966865;28;20460;-78
2023/02/03 09:04:07;;;;;;;214.55;196.13;;;;;;;6.28;80.78;101380.94;4950712;28;20130;-78
2023/02/03 09:06:34;;;;;;;213.80;195.02;;;;;;;6.33;79.84;101390.94;4978358;28;20050;-78
2023/02/03 09:09:00;;;;;;;200.05;180.77;;;;;;;6.28;79.84;101388.94;4940101;28;20560;-79
2023/02/03 09:11:25;;;;;;;214.75;196.52;;;;;;;6.41;77.66;101386.09;4957309;28;20035;-79
2023/02/03 09:13:51;;;;;;;216.25;197.43;;;;;;;6.21;80.97;101398.84;4955906;28;20066;-77
2023/02/03 09:16:18;;;;;;;216.68;197.40;;;;;;;6.32;78.84;101406.09;4954574;28;20035;-78
2023/02/03 09:18:45;;;;;;;201.52;181.93;;;;;;;6.23;79.04;101386.13;4934485;28;20038;-79
2023/02/03 09:21:12;;;;;;;201.63;181.75;;;;;;;6.46;77.24;101396.88;4969023;28;20035;-79
2023/02/03 09:23:39;;;;;;;214.88;195.73;;;;;;;6.34;79.31;101403.19;4968823;28;20039;-79
2023/02/03 09:26:06;;;;;;;214.88;195.95;;;;;;;6.42;77.66;101419.63;4950669;28;20485;-78
2023/02/03 09:28:33;;;;;;;201.77;182.13;;;;;;;6.51;76.41;101413.00;4968205;28;20027;-78
2023/02/03 09:31:03;;;;;;;203.60;183.15;;;;;;;6.39;78.17;101411.31;4955707;28;20046;-79
2023/02/03 09:33:29;;;;;;;200.73;180.88;;;;;;;6.49;77.37;101406.25;4966203;28;20041;-78
2023/02/03 09:35:56;;;;;;;215.40;196.85;;;;;;;6.55;78.13;101402.69;4956585;28;20393;-79
2023/02/03 09:38:23;;;;;;;215.40;196.35;;;;;;;6.59;78.04;101405.72;4967215;28;20129;-77
2023/02/03 09:40:53;;;;;;;216.57;197.05;;;;;;;6.60;76.74;101397.50;4958539;28;20096;-77
2023/02/03 09:43:38;;;;;;;201.68;181.10;;;;;;;6.63;77.34;101404.22;4955924;28;20442;-77
2023/02/03 09:46:14;;;;;;;202.20;181.82;;;;;;;6.61;77.98;101420.41;4958219;28;20089;-79
2023/02/03 09:48:45;;;;;;;203.60;183.20;;;;;;;6.77;76.26;101425.09;4987360;28;20041;-78
2023/02/03 09:51:42;;;;;;;204.67;183.30;;;;;;;6.69;76.64;101454.69;4955418;28;20039;-78
2023/02/03 09:54:14;;;;;;;219.10;199.57;;;;;;;6.87;76.70;101458.34;4974054;28;20031;-78
2023/02/03 09:56:48;;;;;;;221.77;201.20;;;;;;;6.76;76.46;101443.94;4940031;28;20039;-78
2023/02/03 09:59:14;;;;;;;223.57;202.45;;;;;;;6.76;77.90;101455.41;4974436;28;20459;-79
2023/02/03 10:02:24;;;;;;;218.20;197.65;;;;;;;6.88;76.18;101451.97;4959383;28;20118;-79
2023/02/03 10:04:58;;;;;;;209.15;187.48;;;;;;;6.84;76.78;101431.16;4989620;28;20047;-76
2023/02/03 10:07:42;;;;;;;207.75;185.80;;;;;;;7.03;74.44;101468.34;4956988;28;20038;-77
2023/02/03 10:10:14;;;;;;;208.65;187.10;;;;;;;7.01;73.90;101462.44;4942735;28;20072;-77
2023/02/03 10:12:53;;;;;;;207.38;185.57;;;;;;;7.16;73.96;101460.13;4952066;28;20039;-77
2023/02/03 10:15:37;;;;;;;209.63;187.25;;;;;;;7.23;75.61;101471.50;4958200;28;20401;-77
2023/02/03 10:18:11;;;;;;;205.32;183.60;;;;;;;7.13;75.80;101468.59;4943882;28;20488;-79
2023/02/03 10:21:03;;;;;;;219.80;198.75;;;;;;;7.19;75.42;101491.66;4954626;28;20042;-78
2023/02/03 10:23:33;;;;;;;220.18;198.95;;;;;;;7.19;74.91;101486.34;4948109;28;20102;-77
2023/02/03 10:26:03;;;;;;;221.70;200.57;;;;;;;7.26;72.87;101497.69;4952976;28;20035;-77
2023/02/03 10:28:38;;;;;;;219.07;198.50;;;;;;;7.16;74.55;101484.13;4951715;28;20026;-78
2023/02/03 10:31:16;;;;;;;226.15;203.68;;;;;;;7.06;73.56;101492.69;4969756;28;20130;-79
2023/02/03 10:33:42;;;;;;;206.10;184.15;;;;;;;7.04;74.09;101493.91;4972168;28;20102;-77
2023/02/03 10:36:26;;;;;;;220.35;199.60;;;;;;;7.00;74.30;101498.91;4974700;28;20055;-77
2023/02/03 10:39:09;;;;;;;210.23;188.52;;;;;;;6.99;72.89;101477.84;4951504;28;20066;-77
2023/02/03 10:41:34;;;;;;;208.30;186.27;;;;;;;6.99;73.60;101507.13;4969253;28;20035;-78
2023/02/03 10:44:08;;;;;;;212.95;190.23;;;;;;;7.06;73.54;101531.81;4970049;28;20101;-78
2023/02/03 10:46:38;;;;;;;209.65;188.18;;;;;;;6.97;72.80;101490.53;4966267;28;20043;-78
2023/02/03 10:49:04;;;;;;;219.38;199.35;;;;;;;7.04;72.39;101523.22;4954298;28;20126;-77
2023/02/03 10:51:37;;;;;;;217.15;196.85;;;;;;;6.96;74.38;101502.25;4967644;28;20055;-78
2023/02/03 10:54:03;;;;;;;206.77;185.23;;;;;;;7.04;73.49;101515.22;4947557;28;20473;-78
2023/02/03 10:56:34;;;;;;;227.63;206.10;;;;;;;7.17;72.45;101540.88;4970627;28;20042;-78
2023/02/03 10:58:59;;;;;;;213.70;191.05;;;;;;;7.18;71.88;101538.00;4963781;28;20031;-78
2023/02/03 11:01:37;;;;;;;227.13;205.60;;;;;;;7.42;69.24;101532.72;4967636;28;20027;-79
2023/02/03 11:04:05;;;;;;;228.98;207.35;;;;;;;7.67;72.04;101546.66;4959485;28;20104;-78
2023/02/03 11:06:32;;;;;;;230.57;208.82;;;;;;;7.63;71.43;101534.81;4948347;28;20066;-77
2023/02/03 11:08:59;;;;;;;219.65;199.80;;;;;;;7.78;72.31;101540.50;4953525;28;20085;-80
2023/02/03 11:11:30;;;;;;;211.60;189.10;;;;;;;7.78;71.42;101537.03;4954896;28;20086;-78
2023/02/03 11:14:02;;;;;;;209.45;187.73;;;;;;;7.66;70.48;101577.84;4973761;28;20073;-79